Gil Vicente — CSKG — position and weather

sailwx.info

Track history (hours):
 
Tides and Currents Weather Stations Pressure Air Temp Water Temp Dewpoint Dewpoint Depression Visibility Wind Speed Wind Dir Waves Ship Positions

Gil Vicente

Last reported at 2017-May-25 18:01 UTC. Time now 2017-May-25 18:03 UTC.
Position N 38°39' W 009°05'.

Length 49 m.

Type: Passenger vessel. MMSI: 263701390.

Date/timePositionNaut miles runAvg speedWind from/ knotsBaromVisibWave heightAir tempDewpointWater temp
2017-May-25 18:01N 38°39' W 009°05'4 7.8
2017-May-25 17:31N 38°42' W 009°08'2 4.3
2017-May-25 17:01N 38°40' W 009°07'1 2.2
2017-May-25 16:31N 38°39' W 009°06'3 6.6
2017-May-25 16:01N 38°42' W 009°08'4 8.3
2017-May-25 15:31N 38°39' W 009°05'4 7.3
2017-May-25 15:00N 38°42' W 009°08'4 3.7
2017-May-25 14:01N 38°39' W 009°05'0 0.0
2017-May-25 13:30N 38°39' W 009°05'0 0.0
2017-May-25 13:01N 38°39' W 009°05'0 0.0
2017-May-25 12:31N 38°39' W 009°05'0 0.0
2017-May-25 12:01N 38°39' W 009°05'0 0.0
2017-May-25 11:30N 38°39' W 009°05'0 0.0
2017-May-25 11:00N 38°39' W 009°05'0 0.0
2017-May-25 10:31N 38°39' W 009°05'3 6.6
2017-May-25 10:01N 38°41' W 009°08'3 5.7
2017-May-25 09:31N 38°39' W 009°06'1 1.2
2017-May-25 09:01N 38°39' W 009°05'4 8.3
2017-May-25 08:31N 38°42' W 009°08'2 4.8
2017-May-25 08:01N 38°40' W 009°07'0 0.3
2017-May-25 07:31N 38°40' W 009°07'2 4.6
2017-May-25 07:01N 38°42' W 009°08'4 8.3
2017-May-25 06:31N 38°39' W 009°05'4 8.2
2017-May-25 06:00N 38°42' W 009°08'4 8.3
2017-May-25 05:31N 38°39' W 009°05'4 7.8
2017-May-25 05:00N 38°42' W 009°08'4 7.9
2017-May-25 04:30N 38°39' W 009°05'0 0.0
2017-May-24 22:57N 38°39' W 009°05'4 9.4
2017-May-24 22:30N 38°42' W 009°08'4 8.3
2017-May-24 22:00N 38°39' W 009°05'3 6.9
2017-May-24 21:30N 38°42' W 009°08'3 6.9
2017-May-24 21:00N 38°39' W 009°05'3 6.9
2017-May-24 20:30N 38°42' W 009°08'3 6.8
2017-May-24 20:00N 38°39' W 009°05'0 0.0
2017-May-24 19:30N 38°39' W 009°05'4 8.2
2017-May-24 19:00N 38°42' W 009°08'4 8.4
2017-May-24 18:30N 38°39' W 009°05'4 8.4
2017-May-24 18:00N 38°42' W 009°08'4 8.3
2017-May-24 17:30N 38°39' W 009°05'4 7.0
2017-May-24 17:00N 38°42' W 009°08'2 3.6
2017-May-24 16:30N 38°40' W 009°07'1 1.0
2017-May-24 16:00N 38°40' W 009°07'2 4.7
2017-May-24 15:30N 38°39' W 009°05'0 0.0
2017-May-24 09:21N 38°39' W 009°05'3 9.4
2017-May-24 09:00N 38°41' W 009°08'3 5.7
2017-May-24 08:30N 38°39' W 009°06'3 5.5
2017-May-24 08:00N 38°41' W 009°08'3 6.5
2017-May-24 07:30N 38°39' W 009°05'4 8.3
2017-May-24 07:00N 38°42' W 009°08'4 8.4
2017-May-24 06:30N 38°39' W 009°05'3 6.7
2017-May-24 06:00N 38°41' W 009°08'3 6.6
2017-May-24 05:30N 38°39' W 009°05'0 0.0
2017-May-23 19:52N 38°39' W 009°05'411.3
2017-May-23 19:30N 38°42' W 009°08'4 8.3
2017-May-23 19:00N 38°39' W 009°05'4 8.3
2017-May-23 18:30N 38°42' W 009°08'4 8.4
2017-May-23 18:00N 38°39' W 009°05'3 6.1
2017-May-23 17:30N 38°41' W 009°08'0 0.9
2017-May-23 17:00N 38°41' W 009°08'2 4.0
2017-May-23 16:30N 38°39' W 009°06'4 7.1
2017-May-23 16:00N 38°42' W 009°08'4 8.3
2017-May-23 15:30N 38°39' W 009°05'3 6.9
2017-May-23 15:00N 38°42' W 009°08'3 3.5
2017-May-23 14:00N 38°39' W 009°05'0 0.0
2017-May-23 13:30N 38°39' W 009°05'0 0.0
2017-May-23 13:00N 38°39' W 009°05'0 0.0
2017-May-23 12:30N 38°39' W 009°05'0 0.0
2017-May-23 12:00N 38°39' W 009°05'0 0.0
2017-May-23 11:30N 38°39' W 009°05'0 0.0
2017-May-23 11:00N 38°39' W 009°05'0 0.0
2017-May-23 10:30N 38°39' W 009°05'4 7.2
2017-May-23 10:00N 38°42' W 009°08'3 6.3
2017-May-23 09:30N 38°39' W 009°05'1 1.2
2017-May-23 09:00N 38°39' W 009°05'4 8.3
2017-May-23 08:30N 38°42' W 009°08'3 5.3
2017-May-23 08:00N 38°40' W 009°07'0 0.4
2017-May-23 07:30N 38°40' W 009°07'2 4.9
2017-May-23 07:00N 38°42' W 009°08'4 8.2
2017-May-23 06:30N 38°39' W 009°05'4 8.2
2017-May-23 06:00N 38°42' W 009°08'4 8.3
2017-May-23 05:30N 38°39' W 009°05'4 7.9
2017-May-23 05:00N 38°42' W 009°08'4 7.8
2017-May-23 04:30N 38°39' W 009°05'0 0.0
2017-May-22 22:56N 38°39' W 009°05'4 9.8
2017-May-22 22:30N 38°42' W 009°08'4 8.3
2017-May-22 22:00N 38°39' W 009°05'4 7.2
2017-May-22 21:30N 38°42' W 009°08'4 7.2
2017-May-22 21:01N 38°39' W 009°05'3 6.9
2017-May-22 20:30N 38°42' W 009°08'3 6.9
2017-May-22 20:00N 38°39' W 009°05'0 0.0
2017-May-22 19:30N 38°39' W 009°05'4 8.1
2017-May-22 19:00N 38°42' W 009°08'4 8.6
2017-May-22 18:30N 38°39' W 009°05'4 8.4
2017-May-22 18:00N 38°42' W 009°08'4 8.3
2017-May-22 17:31N 38°39' W 009°05'3 6.9
2017-May-22 17:00N 38°42' W 009°08'2 3.7
2017-May-22 16:31N 38°40' W 009°07'0 0.8
2017-May-22 16:00N 38°40' W 009°07'2 4.0
2017-May-22 15:29N 38°39' W 009°05'0 0.0
2017-May-22 10:57N 38°39' W 009°05'0 0.0
2017-May-22 10:30N 38°39' W 009°05'0 0.1
2017-May-22 10:00N 38°39' W 009°05'4 7.1
2017-May-22 09:30N 38°42' W 009°08'3 6.1
2017-May-22 09:01N 38°39' W 009°06'0 0.6
2017-May-22 08:31N 38°39' W 009°05'1 2.4
2017-May-22 08:00N 38°40' W 009°07'1 1.4
2017-May-22 07:30N 38°40' W 009°07'2 3.7
2017-May-22 06:59N 38°39' W 009°05'4 8.1
2017-May-22 06:31N 38°42' W 009°08'4 8.2
2017-May-22 06:00N 38°39' W 009°05'4 7.8
2017-May-22 05:30N 38°42' W 009°08'4 7.3
2017-May-22 05:00N 38°39' W 009°05'4 7.8
2017-May-22 04:30N 38°42' W 009°08'4 8.1
2017-May-22 04:00N 38°39' W 009°05'0 0.1
2017-May-22 01:20N 38°39' W 009°05'412.0
2017-May-22 01:00N 38°42' W 009°08'4 8.3
2017-May-22 00:30N 38°39' W 009°05'4 8.4
2017-May-22 00:01N 38°42' W 009°08'4 8.3
2017-May-21 23:30N 38°39' W 009°05'4 8.3
2017-May-21 23:00N 38°42' W 009°08'4 8.3
2017-May-21 22:30N 38°39' W 009°05'4 7.1
2017-May-21 22:00N 38°42' W 009°08'4 7.1
2017-May-21 21:30N 38°39' W 009°05'3 6.4
2017-May-21 21:01N 38°41' W 009°08'3 5.4
2017-May-21 20:30N 38°39' W 009°06'3 6.3
2017-May-21 20:00N 38°42' W 009°08'4 6.5
2017-May-21 19:28N 38°39' W 009°05'0 0.1
2017-May-21 19:00N 38°39' W 009°05'3 6.5
2017-May-21 18:30N 38°41' W 009°08'3 5.5
2017-May-21 17:59N 38°39' W 009°05'3 6.7
2017-May-21 17:30N 38°42' W 009°08'3 5.9
2017-May-21 17:00N 38°39' W 009°06'3 6.1
2017-May-21 16:30N 38°42' W 009°08'3 6.5
2017-May-21 16:00N 38°39' W 009°05'3 6.3
2017-May-21 15:30N 38°42' W 009°08'3 6.0
2017-May-21 15:00N 38°39' W 009°05'0 0.0
2017-May-21 14:00N 38°39' W 009°06'1 1.3
2017-May-21 13:30N 38°39' W 009°05'0 0.0
2017-May-21 13:00N 38°39' W 009°05'0 0.0
2017-May-21 12:30N 38°39' W 009°05'4 7.6
2017-May-21 12:00N 38°42' W 009°08'3 6.5
2017-May-21 11:30N 38°39' W 009°06'3 5.8
2017-May-21 11:00N 38°42' W 009°08'3 5.7
2017-May-21 10:30N 38°39' W 009°06'1 1.4
2017-May-21 10:00N 38°39' W 009°05'0 0.0
2017-May-19 19:37N 38°39' W 009°05'0 1.2
2017-May-19 19:30N 38°39' W 009°05'4 8.3
2017-May-19 19:00N 38°42' W 009°08'4 8.4
2017-May-19 18:30N 38°39' W 009°05'4 7.5
2017-May-19 18:00N 38°42' W 009°08'2 3.8
2017-May-19 17:30N 38°40' W 009°07'1 2.7
2017-May-19 17:00N 38°39' W 009°06'3 6.8
2017-May-19 16:30N 38°42' W 009°08'4 8.3
2017-May-19 16:00N 38°39' W 009°05'4 8.4
2017-May-19 15:30N 38°42' W 009°08'4 8.2
2017-May-19 15:00N 38°39' W 009°05'1 0.6
2017-May-19 14:00N 38°39' W 009°05'3 5.9
2017-May-19 13:30N 38°41' W 009°08'3 6.2
2017-May-19 13:00N 38°39' W 009°05'0 0.6
2017-May-19 12:30N 38°39' W 009°05'0 0.0
2017-May-19 12:00N 38°39' W 009°05'0 0.0
2017-May-19 11:30N 38°39' W 009°05'0 0.0
2017-May-19 11:00N 38°39' W 009°05'0 0.2
2017-May-19 10:30N 38°39' W 009°05'3 6.9
2017-May-19 10:00N 38°42' W 009°08'3 5.6
2017-May-19 09:30N 38°39' W 009°06'0 0.9
2017-May-19 08:59N 38°39' W 009°05'4 8.3
2017-May-19 08:30N 38°42' W 009°08'3 5.1
2017-May-19 08:00N 38°40' W 009°07'0 0.8
2017-May-19 07:30N 38°40' W 009°07'3 5.7
2017-May-19 07:00N 38°42' W 009°08'4 8.3
2017-May-19 06:30N 38°39' W 009°05'4 8.3
2017-May-19 06:00N 38°42' W 009°08'4 8.3
2017-May-19 05:30N 38°39' W 009°05'4 7.8
2017-May-19 05:00N 38°42' W 009°08'4 7.9
2017-May-19 04:30N 38°39' W 009°05'0 0.0
2017-May-18 22:57N 38°39' W 009°05'4 9.5
2017-May-18 22:30N 38°42' W 009°08'4 8.3
2017-May-18 22:00N 38°39' W 009°05'3 6.7
2017-May-18 21:30N 38°41' W 009°08'3 6.7
2017-May-18 21:00N 38°39' W 009°05'3 6.6
2017-May-18 20:30N 38°42' W 009°08'3 6.6
2017-May-18 20:00N 38°39' W 009°05'0 0.0
2017-May-18 19:30N 38°39' W 009°05'4 8.3
2017-May-18 19:00N 38°42' W 009°08'4 8.4
2017-May-18 18:30N 38°39' W 009°05'4 8.4
2017-May-18 18:00N 38°42' W 009°08'4 8.3
2017-May-18 17:30N 38°39' W 009°05'4 7.5
2017-May-18 17:00N 38°42' W 009°08'2 4.6
2017-May-18 16:30N 38°40' W 009°07'1 1.7
2017-May-18 16:00N 38°40' W 009°08'3 5.3
2017-May-18 15:30N 38°39' W 009°05'0 0.0
2017-May-18 11:23N 38°39' W 009°05'0 0.4
2017-May-18 10:59N 38°39' W 009°05'0 0.3
2017-May-18 10:30N 38°39' W 009°05'0 0.0
2017-May-18 10:00N 38°39' W 009°05'0 0.0
2017-May-18 09:30N 38°39' W 009°05'3 6.9
2017-May-18 09:00N 38°42' W 009°08'3 5.9
2017-May-18 08:30N 38°39' W 009°06'3 5.2
2017-May-18 08:00N 38°41' W 009°08'3 6.3
2017-May-18 07:31N 38°39' W 009°05'4 8.3
2017-May-18 07:01N 38°42' W 009°08'4 8.3
2017-May-18 06:30N 38°39' W 009°05'3 5.9
2017-May-18 06:00N 38°41' W 009°08'3 5.6
2017-May-18 05:29N 38°39' W 009°05'0 0.0
2017-May-17 20:37N 38°39' W 009°05'0 0.0
2017-May-17 20:31N 38°39' W 009°05'4 8.3
2017-May-17 20:01N 38°42' W 009°08'4 8.3
2017-May-17 19:30N 38°39' W 009°05'2 3.9
2017-May-17 19:00N 38°40' W 009°07'0 1.0
2017-May-17 18:30N 38°40' W 009°07'1 2.1
2017-May-17 18:01N 38°40' W 009°06'0 0.5
2017-May-17 17:30N 38°40' W 009°06'3 6.5
2017-May-17 17:01N 38°42' W 009°08'4 8.3
2017-May-17 16:31N 38°39' W 009°05'4 8.3
2017-May-17 16:01N 38°42' W 009°08'4 7.6
2017-May-17 15:31N 38°39' W 009°05'2 4.9
2017-May-17 15:01N 38°41' W 009°07'3 5.8
2017-May-17 14:30N 38°39' W 009°05'0 0.0
2017-May-17 12:19N 38°39' W 009°05'310.6
2017-May-17 12:00N 38°41' W 009°08'2 4.8
2017-May-17 11:30N 38°39' W 009°06'3 5.0
2017-May-17 11:00N 38°42' W 009°08'3 6.1
2017-May-17 10:30N 38°39' W 009°05'0 0.8
2017-May-17 10:00N 38°39' W 009°05'0 0.0
2017-May-17 09:30N 38°39' W 009°05'4 8.1
2017-May-17 09:00N 38°42' W 009°08'4 8.2
2017-May-17 08:30N 38°39' W 009°05'4 8.4
2017-May-17 08:00N 38°42' W 009°08'4 7.1
2017-May-17 07:30N 38°39' W 009°06'1 2.2
2017-May-17 07:00N 38°40' W 009°07'0 0.4
2017-May-17 06:30N 38°40' W 009°06'1 1.7
2017-May-17 06:00N 38°39' W 009°06'1 1.2
2017-May-17 05:30N 38°39' W 009°05'0 0.0
2017-May-16 20:22N 38°39' W 009°05'2 6.4
2017-May-16 20:00N 38°40' W 009°07'0 0.0
2017-May-16 19:30N 38°40' W 009°07'2 4.9
2017-May-16 19:00N 38°39' W 009°05'3 5.0
2017-May-16 18:30N 38°40' W 009°08'2 4.2
2017-May-16 18:00N 38°39' W 009°05'4 7.8
2017-May-16 17:30N 38°42' W 009°08'4 8.3
2017-May-16 17:00N 38°39' W 009°05'4 7.0
2017-May-16 16:30N 38°42' W 009°08'2 3.3
2017-May-16 16:00N 38°40' W 009°07'1 1.1
2017-May-16 15:30N 38°40' W 009°07'2 3.6
2017-May-16 15:00N 38°39' W 009°05'0 0.0
2017-May-16 14:30N 38°39' W 009°05'0 0.5
2017-May-16 13:30N 38°39' W 009°05'3 6.5
2017-May-16 13:00N 38°42' W 009°08'3 5.9
2017-May-16 12:30N 38°39' W 009°06'1 1.5
2017-May-16 12:00N 38°39' W 009°05'0 0.1
2017-May-16 11:30N 38°39' W 009°05'0 0.3
2017-May-16 11:00N 38°39' W 009°05'0 0.0
2017-May-16 10:30N 38°39' W 009°05'0 0.0
2017-May-16 10:00N 38°39' W 009°05'3 6.6
2017-May-16 09:30N 38°41' W 009°08'3 5.7
2017-May-16 09:00N 38°39' W 009°06'1 1.2
2017-May-16 08:30N 38°39' W 009°05'3 6.7
2017-May-16 08:00N 38°41' W 009°08'2 3.3
2017-May-16 07:30N 38°40' W 009°07'1 2.4
2017-May-16 07:00N 38°39' W 009°06'4 7.3
2017-May-16 06:30N 38°42' W 009°08'4 8.4
2017-May-16 06:00N 38°39' W 009°05'4 7.0
2017-May-16 05:30N 38°42' W 009°08'3 6.4
2017-May-16 05:00N 38°39' W 009°05'3 7.0
2017-May-16 04:30N 38°42' W 009°08'4 7.5
2017-May-16 04:00N 38°39' W 009°05'0 0.0
2017-May-16 01:21N 38°39' W 009°05'412.4
2017-May-16 01:00N 38°42' W 009°08'4 8.3
2017-May-16 00:30N 38°39' W 009°05'4 8.3
2017-May-16 00:00N 38°42' W 009°08'4 8.4
2017-May-15 23:30N 38°39' W 009°05'4 8.3
2017-May-15 23:00N 38°42' W 009°08'4 8.3
2017-May-15 22:30N 38°39' W 009°05'3 6.7
2017-May-15 22:00N 38°42' W 009°08'3 5.8
2017-May-15 21:30N 38°39' W 009°05'3 5.8
2017-May-15 21:00N 38°41' W 009°08'3 5.5
2017-May-15 20:30N 38°39' W 009°06'1 1.4
2017-May-15 20:00N 38°39' W 009°05'1 1.7
2017-May-15 19:30N 38°39' W 009°06'3 7.1
2017-May-15 19:00N 38°42' W 009°08'4 8.2
2017-May-15 18:30N 38°39' W 009°05'  
Track history (hours):
 
Tides and Currents Weather Stations Pressure Air Temp Water Temp Dewpoint Dewpoint Depression Visibility Wind Speed Wind Dir Waves Ship Positions

Gil Vicente

Last reported at 2017-May-25 18:01 UTC. Time now 2017-May-25 18:03 UTC.
Position N 38°39' W 009°05'.

Length 49 m.

Type: Passenger vessel. MMSI: 263701390.

Date/timePositionNaut miles runAvg speedWind from/ knotsBaromVisibWave heightAir tempDewpointWater temp
2017-May-25 18:01N 38°39' W 009°05'4 7.8
2017-May-25 17:31N 38°42' W 009°08'2 4.3
2017-May-25 17:01N 38°40' W 009°07'1 2.2
2017-May-25 16:31N 38°39' W 009°06'3 6.6
2017-May-25 16:01N 38°42' W 009°08'4 8.3
2017-May-25 15:31N 38°39' W 009°05'4 7.3
2017-May-25 15:00N 38°42' W 009°08'4 3.7
2017-May-25 14:01N 38°39' W 009°05'0 0.0
2017-May-25 13:30N 38°39' W 009°05'0 0.0
2017-May-25 13:01N 38°39' W 009°05'0 0.0
2017-May-25 12:31N 38°39' W 009°05'0 0.0
2017-May-25 12:01N 38°39' W 009°05'0 0.0
2017-May-25 11:30N 38°39' W 009°05'0 0.0
2017-May-25 11:00N 38°39' W 009°05'0 0.0
2017-May-25 10:31N 38°39' W 009°05'3 6.6
2017-May-25 10:01N 38°41' W 009°08'3 5.7
2017-May-25 09:31N 38°39' W 009°06'1 1.2
2017-May-25 09:01N 38°39' W 009°05'4 8.3
2017-May-25 08:31N 38°42' W 009°08'2 4.8
2017-May-25 08:01N 38°40' W 009°07'0 0.3
2017-May-25 07:31N 38°40' W 009°07'2 4.6
2017-May-25 07:01N 38°42' W 009°08'4 8.3
2017-May-25 06:31N 38°39' W 009°05'4 8.2
2017-May-25 06:00N 38°42' W 009°08'4 8.3
2017-May-25 05:31N 38°39' W 009°05'4 7.8
2017-May-25 05:00N 38°42' W 009°08'4 7.9
2017-May-25 04:30N 38°39' W 009°05'0 0.0
2017-May-24 22:57N 38°39' W 009°05'4 9.4
2017-May-24 22:30N 38°42' W 009°08'4 8.3
2017-May-24 22:00N 38°39' W 009°05'3 6.9
2017-May-24 21:30N 38°42' W 009°08'3 6.9
2017-May-24 21:00N 38°39' W 009°05'3 6.9
2017-May-24 20:30N 38°42' W 009°08'3 6.8
2017-May-24 20:00N 38°39' W 009°05'0 0.0
2017-May-24 19:30N 38°39' W 009°05'4 8.2
2017-May-24 19:00N 38°42' W 009°08'4 8.4
2017-May-24 18:30N 38°39' W 009°05'4 8.4
2017-May-24 18:00N 38°42' W 009°08'4 8.3
2017-May-24 17:30N 38°39' W 009°05'4 7.0
2017-May-24 17:00N 38°42' W 009°08'2 3.6
2017-May-24 16:30N 38°40' W 009°07'1 1.0
2017-May-24 16:00N 38°40' W 009°07'2 4.7
2017-May-24 15:30N 38°39' W 009°05'0 0.0
2017-May-24 09:21N 38°39' W 009°05'3 9.4
2017-May-24 09:00N 38°41' W 009°08'3 5.7
2017-May-24 08:30N 38°39' W 009°06'3 5.5
2017-May-24 08:00N 38°41' W 009°08'3 6.5
2017-May-24 07:30N 38°39' W 009°05'4 8.3
2017-May-24 07:00N 38°42' W 009°08'4 8.4
2017-May-24 06:30N 38°39' W 009°05'3 6.7
2017-May-24 06:00N 38°41' W 009°08'3 6.6
2017-May-24 05:30N 38°39' W 009°05'0 0.0
2017-May-23 19:52N 38°39' W 009°05'411.3
2017-May-23 19:30N 38°42' W 009°08'4 8.3
2017-May-23 19:00N 38°39' W 009°05'4 8.3
2017-May-23 18:30N 38°42' W 009°08'4 8.4
2017-May-23 18:00N 38°39' W 009°05'3 6.1
2017-May-23 17:30N 38°41' W 009°08'0 0.9
2017-May-23 17:00N 38°41' W 009°08'2 4.0
2017-May-23 16:30N 38°39' W 009°06'4 7.1
2017-May-23 16:00N 38°42' W 009°08'4 8.3
2017-May-23 15:30N 38°39' W 009°05'3 6.9
2017-May-23 15:00N 38°42' W 009°08'3 3.5
2017-May-23 14:00N 38°39' W 009°05'0 0.0
2017-May-23 13:30N 38°39' W 009°05'0 0.0
2017-May-23 13:00N 38°39' W 009°05'0 0.0
2017-May-23 12:30N 38°39' W 009°05'0 0.0
2017-May-23 12:00N 38°39' W 009°05'0 0.0
2017-May-23 11:30N 38°39' W 009°05'0 0.0
2017-May-23 11:00N 38°39' W 009°05'0 0.0
2017-May-23 10:30N 38°39' W 009°05'4 7.2
2017-May-23 10:00N 38°42' W 009°08'3 6.3
2017-May-23 09:30N 38°39' W 009°05'1 1.2
2017-May-23 09:00N 38°39' W 009°05'4 8.3
2017-May-23 08:30N 38°42' W 009°08'3 5.3
2017-May-23 08:00N 38°40' W 009°07'0 0.4
2017-May-23 07:30N 38°40' W 009°07'2 4.9
2017-May-23 07:00N 38°42' W 009°08'4 8.2
2017-May-23 06:30N 38°39' W 009°05'4 8.2
2017-May-23 06:00N 38°42' W 009°08'4 8.3
2017-May-23 05:30N 38°39' W 009°05'4 7.9
2017-May-23 05:00N 38°42' W 009°08'4 7.8
2017-May-23 04:30N 38°39' W 009°05'0 0.0
2017-May-22 22:56N 38°39' W 009°05'4 9.8
2017-May-22 22:30N 38°42' W 009°08'4 8.3
2017-May-22 22:00N 38°39' W 009°05'4 7.2
2017-May-22 21:30N 38°42' W 009°08'4 7.2
2017-May-22 21:01N 38°39' W 009°05'3 6.9
2017-May-22 20:30N 38°42' W 009°08'3 6.9
2017-May-22 20:00N 38°39' W 009°05'0 0.0
2017-May-22 19:30N 38°39' W 009°05'4 8.1
2017-May-22 19:00N 38°42' W 009°08'4 8.6
2017-May-22 18:30N 38°39' W 009°05'4 8.4
2017-May-22 18:00N 38°42' W 009°08'4 8.3
2017-May-22 17:31N 38°39' W 009°05'3 6.9
2017-May-22 17:00N 38°42' W 009°08'2 3.7
2017-May-22 16:31N 38°40' W 009°07'0 0.8
2017-May-22 16:00N 38°40' W 009°07'2 4.0
2017-May-22 15:29N 38°39' W 009°05'0 0.0
2017-May-22 10:57N 38°39' W 009°05'0 0.0
2017-May-22 10:30N 38°39' W 009°05'0 0.1
2017-May-22 10:00N 38°39' W 009°05'4 7.1
2017-May-22 09:30N 38°42' W 009°08'3 6.1
2017-May-22 09:01N 38°39' W 009°06'0 0.6
2017-May-22 08:31N 38°39' W 009°05'1 2.4
2017-May-22 08:00N 38°40' W 009°07'1 1.4
2017-May-22 07:30N 38°40' W 009°07'2 3.7
2017-May-22 06:59N 38°39' W 009°05'4 8.1
2017-May-22 06:31N 38°42' W 009°08'4 8.2
2017-May-22 06:00N 38°39' W 009°05'4 7.8
2017-May-22 05:30N 38°42' W 009°08'4 7.3
2017-May-22 05:00N 38°39' W 009°05'4 7.8
2017-May-22 04:30N 38°42' W 009°08'4 8.1
2017-May-22 04:00N 38°39' W 009°05'0 0.1
2017-May-22 01:20N 38°39' W 009°05'412.0
2017-May-22 01:00N 38°42' W 009°08'4 8.3
2017-May-22 00:30N 38°39' W 009°05'4 8.4
2017-May-22 00:01N 38°42' W 009°08'4 8.3
2017-May-21 23:30N 38°39' W 009°05'4 8.3
2017-May-21 23:00N 38°42' W 009°08'4 8.3
2017-May-21 22:30N 38°39' W 009°05'4 7.1
2017-May-21 22:00N 38°42' W 009°08'4 7.1
2017-May-21 21:30N 38°39' W 009°05'3 6.4
2017-May-21 21:01N 38°41' W 009°08'3 5.4
2017-May-21 20:30N 38°39' W 009°06'3 6.3
2017-May-21 20:00N 38°42' W 009°08'4 6.5
2017-May-21 19:28N 38°39' W 009°05'0 0.1
2017-May-21 19:00N 38°39' W 009°05'3 6.5
2017-May-21 18:30N 38°41' W 009°08'3 5.5
2017-May-21 17:59N 38°39' W 009°05'3 6.7
2017-May-21 17:30N 38°42' W 009°08'3 5.9
2017-May-21 17:00N 38°39' W 009°06'3 6.1
2017-May-21 16:30N 38°42' W 009°08'3 6.5
2017-May-21 16:00N 38°39' W 009°05'3 6.3
2017-May-21 15:30N 38°42' W 009°08'3 6.0
2017-May-21 15:00N 38°39' W 009°05'0 0.0
2017-May-21 14:00N 38°39' W 009°06'1 1.3
2017-May-21 13:30N 38°39' W 009°05'0 0.0
2017-May-21 13:00N 38°39' W 009°05'0 0.0
2017-May-21 12:30N 38°39' W 009°05'4 7.6
2017-May-21 12:00N 38°42' W 009°08'3 6.5
2017-May-21 11:30N 38°39' W 009°06'3 5.8
2017-May-21 11:00N 38°42' W 009°08'3 5.7
2017-May-21 10:30N 38°39' W 009°06'1 1.4
2017-May-21 10:00N 38°39' W 009°05'0 0.0
2017-May-19 19:37N 38°39' W 009°05'0 1.2
2017-May-19 19:30N 38°39' W 009°05'4 8.3
2017-May-19 19:00N 38°42' W 009°08'4 8.4
2017-May-19 18:30N 38°39' W 009°05'4 7.5
2017-May-19 18:00N 38°42' W 009°08'2 3.8
2017-May-19 17:30N 38°40' W 009°07'1 2.7
2017-May-19 17:00N 38°39' W 009°06'3 6.8
2017-May-19 16:30N 38°42' W 009°08'4 8.3
2017-May-19 16:00N 38°39' W 009°05'4 8.4
2017-May-19 15:30N 38°42' W 009°08'4 8.2
2017-May-19 15:00N 38°39' W 009°05'1 0.6
2017-May-19 14:00N 38°39' W 009°05'3 5.9
2017-May-19 13:30N 38°41' W 009°08'3 6.2
2017-May-19 13:00N 38°39' W 009°05'0 0.6
2017-May-19 12:30N 38°39' W 009°05'0 0.0
2017-May-19 12:00N 38°39' W 009°05'0 0.0
2017-May-19 11:30N 38°39' W 009°05'0 0.0
2017-May-19 11:00N 38°39' W 009°05'0 0.2
2017-May-19 10:30N 38°39' W 009°05'3 6.9
2017-May-19 10:00N 38°42' W 009°08'3 5.6
2017-May-19 09:30N 38°39' W 009°06'0 0.9
2017-May-19 08:59N 38°39' W 009°05'4 8.3
2017-May-19 08:30N 38°42' W 009°08'3 5.1
2017-May-19 08:00N 38°40' W 009°07'0 0.8
2017-May-19 07:30N 38°40' W 009°07'3 5.7
2017-May-19 07:00N 38°42' W 009°08'4 8.3
2017-May-19 06:30N 38°39' W 009°05'4 8.3
2017-May-19 06:00N 38°42' W 009°08'4 8.3
2017-May-19 05:30N 38°39' W 009°05'4 7.8
2017-May-19 05:00N 38°42' W 009°08'4 7.9
2017-May-19 04:30N 38°39' W 009°05'0 0.0
2017-May-18 22:57N 38°39' W 009°05'4 9.5
2017-May-18 22:30N 38°42' W 009°08'4 8.3
2017-May-18 22:00N 38°39' W 009°05'3 6.7
2017-May-18 21:30N 38°41' W 009°08'3 6.7
2017-May-18 21:00N 38°39' W 009°05'3 6.6
2017-May-18 20:30N 38°42' W 009°08'3 6.6
2017-May-18 20:00N 38°39' W 009°05'0 0.0
2017-May-18 19:30N 38°39' W 009°05'4 8.3
2017-May-18 19:00N 38°42' W 009°08'4 8.4
2017-May-18 18:30N 38°39' W 009°05'4 8.4
2017-May-18 18:00N 38°42' W 009°08'4 8.3
2017-May-18 17:30N 38°39' W 009°05'4 7.5
2017-May-18 17:00N 38°42' W 009°08'2 4.6
2017-May-18 16:30N 38°40' W 009°07'1 1.7
2017-May-18 16:00N 38°40' W 009°08'3 5.3
2017-May-18 15:30N 38°39' W 009°05'0 0.0
2017-May-18 11:23N 38°39' W 009°05'0 0.4
2017-May-18 10:59N 38°39' W 009°05'0 0.3
2017-May-18 10:30N 38°39' W 009°05'0 0.0
2017-May-18 10:00N 38°39' W 009°05'0 0.0
2017-May-18 09:30N 38°39' W 009°05'3 6.9
2017-May-18 09:00N 38°42' W 009°08'3 5.9
2017-May-18 08:30N 38°39' W 009°06'3 5.2
2017-May-18 08:00N 38°41' W 009°08'3 6.3
2017-May-18 07:31N 38°39' W 009°05'4 8.3
2017-May-18 07:01N 38°42' W 009°08'4 8.3
2017-May-18 06:30N 38°39' W 009°05'3 5.9
2017-May-18 06:00N 38°41' W 009°08'3 5.6
2017-May-18 05:29N 38°39' W 009°05'0 0.0
2017-May-17 20:37N 38°39' W 009°05'0 0.0
2017-May-17 20:31N 38°39' W 009°05'4 8.3
2017-May-17 20:01N 38°42' W 009°08'4 8.3
2017-May-17 19:30N 38°39' W 009°05'2 3.9
2017-May-17 19:00N 38°40' W 009°07'0 1.0
2017-May-17 18:30N 38°40' W 009°07'1 2.1
2017-May-17 18:01N 38°40' W 009°06'0 0.5
2017-May-17 17:30N 38°40' W 009°06'3 6.5
2017-May-17 17:01N 38°42' W 009°08'4 8.3
2017-May-17 16:31N 38°39' W 009°05'4 8.3
2017-May-17 16:01N 38°42' W 009°08'4 7.6
2017-May-17 15:31N 38°39' W 009°05'2 4.9
2017-May-17 15:01N 38°41' W 009°07'3 5.8
2017-May-17 14:30N 38°39' W 009°05'0 0.0
2017-May-17 12:19N 38°39' W 009°05'310.6
2017-May-17 12:00N 38°41' W 009°08'2 4.8
2017-May-17 11:30N 38°39' W 009°06'3 5.0
2017-May-17 11:00N 38°42' W 009°08'3 6.1
2017-May-17 10:30N 38°39' W 009°05'0 0.8
2017-May-17 10:00N 38°39' W 009°05'0 0.0
2017-May-17 09:30N 38°39' W 009°05'4 8.1
2017-May-17 09:00N 38°42' W 009°08'4 8.2
2017-May-17 08:30N 38°39' W 009°05'4 8.4
2017-May-17 08:00N 38°42' W 009°08'4 7.1
2017-May-17 07:30N 38°39' W 009°06'1 2.2
2017-May-17 07:00N 38°40' W 009°07'0 0.4
2017-May-17 06:30N 38°40' W 009°06'1 1.7
2017-May-17 06:00N 38°39' W 009°06'1 1.2
2017-May-17 05:30N 38°39' W 009°05'0 0.0
2017-May-16 20:22N 38°39' W 009°05'2 6.4
2017-May-16 20:00N 38°40' W 009°07'0 0.0
2017-May-16 19:30N 38°40' W 009°07'2 4.9
2017-May-16 19:00N 38°39' W 009°05'3 5.0
2017-May-16 18:30N 38°40' W 009°08'2 4.2
2017-May-16 18:00N 38°39' W 009°05'4 7.8
2017-May-16 17:30N 38°42' W 009°08'4 8.3
2017-May-16 17:00N 38°39' W 009°05'4 7.0
2017-May-16 16:30N 38°42' W 009°08'2 3.3
2017-May-16 16:00N 38°40' W 009°07'1 1.1
2017-May-16 15:30N 38°40' W 009°07'2 3.6
2017-May-16 15:00N 38°39' W 009°05'0 0.0
2017-May-16 14:30N 38°39' W 009°05'0 0.5
2017-May-16 13:30N 38°39' W 009°05'3 6.5
2017-May-16 13:00N 38°42' W 009°08'3 5.9
2017-May-16 12:30N 38°39' W 009°06'1 1.5
2017-May-16 12:00N 38°39' W 009°05'0 0.1
2017-May-16 11:30N 38°39' W 009°05'0 0.3
2017-May-16 11:00N 38°39' W 009°05'0 0.0
2017-May-16 10:30N 38°39' W 009°05'0 0.0
2017-May-16 10:00N 38°39' W 009°05'3 6.6
2017-May-16 09:30N 38°41' W 009°08'3 5.7
2017-May-16 09:00N 38°39' W 009°06'1 1.2
2017-May-16 08:30N 38°39' W 009°05'3 6.7
2017-May-16 08:00N 38°41' W 009°08'2 3.3
2017-May-16 07:30N 38°40' W 009°07'1 2.4
2017-May-16 07:00N 38°39' W 009°06'4 7.3
2017-May-16 06:30N 38°42' W 009°08'4 8.4
2017-May-16 06:00N 38°39' W 009°05'4 7.0
2017-May-16 05:30N 38°42' W 009°08'3 6.4
2017-May-16 05:00N 38°39' W 009°05'3 7.0
2017-May-16 04:30N 38°42' W 009°08'4 7.5
2017-May-16 04:00N 38°39' W 009°05'0 0.0
2017-May-16 01:21N 38°39' W 009°05'412.4
2017-May-16 01:00N 38°42' W 009°08'4 8.3
2017-May-16 00:30N 38°39' W 009°05'4 8.3
2017-May-16 00:00N 38°42' W 009°08'4 8.4
2017-May-15 23:30N 38°39' W 009°05'4 8.3
2017-May-15 23:00N 38°42' W 009°08'4 8.3
2017-May-15 22:30N 38°39' W 009°05'3 6.7
2017-May-15 22:00N 38°42' W 009°08'3 5.8
2017-May-15 21:30N 38°39' W 009°05'3 5.8
2017-May-15 21:00N 38°41' W 009°08'3 5.5
2017-May-15 20:30N 38°39' W 009°06'1 1.4
2017-May-15 20:00N 38°39' W 009°05'1 1.7
2017-May-15 19:30N 38°39' W 009°06'3 7.1
2017-May-15 19:00N 38°42' W 009°08'4 8.2
2017-May-15 18:30N 38°39' W 009°05'  

Dump ship's entire track history